aviador You're here:

KDYB Decoded Metar

in
Report Time2017-05-29 03:55:00
UTC Time2017-05-29 03:55:45
Flight Rules vfr VFR
WindCalm
Visibility9999 m
Phenomena:N/A
Clouds:N/A
Expected CloudBase > 800 ft AGL from Temp-Dew spread
CeilingNone
Temp24°C
Dew Point22°C (89% RH)
QNH1013 hPa
Raw Report
KDYB 290355Z AUTO 00000KT 10SM CLR 24/22 A2990 RMK AO1=

Extra information for KDYB:More info

Social comments